Time;durP1;ratioP1;P1;durP2;ratioP2;P2;SDS_P1;SDS_P2;PMS_P1;PMS_P2;Temp;Humidity;BMP_temperature;BMP_pressure;BME280_temperature;BME280_humidity;BME280_pressure;Samples;Min_cycle;Max_cycle;Signal;HPM_P1;HPM_P2
2023/06/14 00:02:19;;;;;;;4.57;1.97;;;;;;;14.94;58.51;100984.97;6038226;28;20318;-67
2023/06/14 00:05:15;;;;;;;4.60;1.90;;;;;;;14.89;59.23;100998.00;6050844;28;20124;-67
2023/06/14 00:08:10;;;;;;;2.73;1.73;;;;;;;14.83;58.76;101004.00;6052507;28;20026;-67
2023/06/14 00:11:06;;;;;;;6.32;2.33;;;;;;;14.62;59.73;100990.31;6041709;28;20788;-67
2023/06/14 00:14:03;;;;;;;3.20;1.70;;;;;;;14.68;59.79;101009.16;6041414;28;20026;-67
2023/06/14 00:16:59;;;;;;;3.80;1.73;;;;;;;14.68;59.49;101001.13;6044976;28;20061;-67
2023/06/14 00:19:54;;;;;;;4.53;1.83;;;;;;;14.69;59.48;100993.97;6035359;28;20070;-67
2023/06/14 00:22:50;;;;;;;6.70;2.10;;;;;;;14.66;59.73;101005.81;6027456;28;20345;-67
2023/06/14 00:25:45;;;;;;;5.60;1.95;;;;;;;14.53;60.02;101001.97;6041753;28;20150;-67
2023/06/14 00:28:41;;;;;;;2.77;1.60;;;;;;;14.49;60.58;101011.28;6049325;28;20037;-67
2023/06/14 00:31:36;;;;;;;3.30;1.85;;;;;;;14.59;60.01;101009.31;6028140;28;20037;-67
2023/06/14 00:34:31;;;;;;;3.33;1.80;;;;;;;14.49;60.32;101009.44;6033041;28;20033;-68
2023/06/14 00:37:26;;;;;;;5.67;1.80;;;;;;;14.55;60.13;101018.63;6051835;28;20033;-67
2023/06/14 00:40:22;;;;;;;3.57;1.67;;;;;;;14.52;60.75;101002.94;6049234;28;20483;-67
2023/06/14 00:43:17;;;;;;;3.08;1.55;;;;;;;14.49;59.71;100998.78;6041106;28;20022;-67
2023/06/14 00:46:13;;;;;;;3.80;1.63;;;;;;;14.74;60.64;101004.97;6051460;28;20022;-66
2023/06/14 00:49:08;;;;;;;5.07;1.77;;;;;;;14.75;60.26;101022.69;6051795;28;20143;-66
2023/06/14 00:52:04;;;;;;;3.90;1.80;;;;;;;14.50;60.76;101012.97;6045771;28;20029;-66
2023/06/14 00:54:59;;;;;;;4.05;2.00;;;;;;;14.52;60.88;100997.59;6062287;28;20030;-66
2023/06/14 00:57:55;;;;;;;3.60;1.70;;;;;;;14.41;61.82;101008.59;6050815;28;20045;-66
2023/06/14 01:00:51;;;;;;;3.60;1.83;;;;;;;14.33;61.81;101006.75;6047441;28;20265;-66
2023/06/14 01:03:46;;;;;;;5.50;1.88;;;;;;;14.29;61.81;101021.41;6036702;28;20630;-66
2023/06/14 01:06:46;;;;;;;4.97;1.87;;;;;;;14.24;62.30;101002.38;6030988;28;20137;-66
2023/06/14 01:09:48;;;;;;;3.95;1.80;;;;;;;14.52;64.22;101021.63;6048887;28;20031;-66
2023/06/14 01:13:03;;;;;;;3.75;1.70;;;;;;;14.18;62.30;101009.19;6032922;28;20057;-65
2023/06/14 01:15:58;;;;;;;6.97;1.80;;;;;;;14.35;63.03;101026.09;6030442;28;20033;-66
2023/06/14 01:18:56;;;;;;;4.60;1.65;;;;;;;14.15;62.57;101016.69;6050825;28;20084;-66
2023/06/14 01:21:52;;;;;;;3.22;1.55;;;;;;;14.30;63.97;101009.72;6051424;28;20052;-66
2023/06/14 01:24:49;;;;;;;2.88;1.50;;;;;;;14.08;62.28;101021.81;6034729;28;20026;-66
2023/06/14 01:27:44;;;;;;;4.13;1.63;;;;;;;14.09;63.15;101020.81;6050757;28;20037;-66
2023/06/14 01:30:44;;;;;;;4.57;1.70;;;;;;;13.93;64.38;101027.91;6062650;28;20101;-66
2023/06/14 01:33:40;;;;;;;;;;;;;;;13.90;64.05;101033.56;6040171;28;20033;-66
2023/06/14 01:36:36;;;;;;;3.33;2.10;;;;;;;13.79;64.29;101029.34;6050820;28;20261;-66
2023/06/14 01:39:32;;;;;;;2.88;1.52;;;;;;;13.82;64.28;101023.69;6047494;28;20056;-66
2023/06/14 01:42:27;;;;;;;3.05;1.90;;;;;;;13.75;64.92;101032.50;6034881;28;20042;-66
2023/06/14 01:45:23;;;;;;;2.57;1.50;;;;;;;13.84;64.19;101015.53;6048588;28;20061;-66
2023/06/14 01:48:18;;;;;;;6.32;1.75;;;;;;;13.67;64.89;101025.28;6065475;28;20054;-66
2023/06/14 01:51:14;;;;;;;5.13;1.88;;;;;;;13.50;65.74;101031.53;6037975;28;20369;-66
2023/06/14 01:54:09;;;;;;;3.70;1.73;;;;;;;14.01;65.83;101035.94;6042853;28;20038;-66
2023/06/14 01:57:06;;;;;;;3.30;1.60;;;;;;;13.70;66.19;101020.47;6037658;28;20027;-66
2023/06/14 02:00:03;;;;;;;3.22;1.60;;;;;;;13.71;66.19;101026.63;6025385;28;20054;-66
2023/06/14 02:02:58;;;;;;;3.13;1.58;;;;;;;13.71;65.55;101037.31;6034282;28;20121;-66
2023/06/14 02:05:55;;;;;;;3.00;1.70;;;;;;;14.06;65.26;101029.13;6049352;28;20038;-66
2023/06/14 02:08:50;;;;;;;4.65;1.50;;;;;;;13.83;65.65;101030.72;6046478;28;20033;-67
2023/06/14 02:11:45;;;;;;;3.20;1.60;;;;;;;13.90;65.53;101029.06;6028605;28;20045;-66
2023/06/14 02:14:41;;;;;;;6.30;1.80;;;;;;;13.45;66.79;101033.81;6037825;28;20577;-66
2023/06/14 02:17:37;;;;;;;3.38;1.60;;;;;;;13.16;68.29;101035.91;6047467;28;20021;-66
2023/06/14 02:20:32;;;;;;;3.67;1.63;;;;;;;13.08;68.24;101045.53;6048830;28;20034;-66
2023/06/14 02:23:27;;;;;;;3.60;1.70;;;;;;;13.02;69.28;101040.78;6038974;28;20030;-66
2023/06/14 02:26:23;;;;;;;3.97;2.00;;;;;;;12.88;69.69;101032.50;6049149;28;20026;-66
2023/06/14 02:29:18;;;;;;;4.70;1.50;;;;;;;13.00;69.89;101042.75;6049718;28;20501;-66
2023/06/14 02:32:13;;;;;;;3.33;1.70;;;;;;;13.13;69.15;101052.22;6042793;28;20303;-66
2023/06/14 02:35:09;;;;;;;3.67;1.50;;;;;;;12.98;69.64;101047.41;6042233;28;20414;-66
2023/06/14 02:38:04;;;;;;;3.38;1.60;;;;;;;13.05;70.05;101044.97;6042468;28;20053;-66
2023/06/14 02:41:01;;;;;;;3.70;1.70;;;;;;;12.94;70.33;101030.06;6045620;28;20484;-66
2023/06/14 02:43:58;;;;;;;5.03;2.45;;;;;;;13.13;70.35;101032.59;6048957;28;20105;-66
2023/06/14 02:46:55;;;;;;;3.72;1.77;;;;;;;13.25;68.76;101050.97;6049169;28;20457;-66
2023/06/14 02:49:50;;;;;;;4.90;1.60;;;;;;;13.26;70.31;101047.34;6046603;28;20037;-66
2023/06/14 02:52:45;;;;;;;2.80;1.67;;;;;;;13.13;70.23;101037.91;6046286;28;20452;-66
2023/06/14 02:55:40;;;;;;;2.90;1.70;;;;;;;13.36;69.79;101054.25;6048862;28;20083;-66
2023/06/14 02:58:36;;;;;;;5.47;1.60;;;;;;;13.06;69.54;101057.28;6049118;28;20076;-66
2023/06/14 03:01:34;;;;;;;3.85;1.70;;;;;;;13.13;70.02;101064.53;6040605;28;20034;-66
2023/06/14 03:04:36;;;;;;;4.03;1.92;;;;;;;13.30;70.40;101068.16;6045299;28;20029;-66
2023/06/14 03:07:32;;;;;;;3.92;1.90;;;;;;;13.21;69.55;101070.94;6049005;28;20034;-66
2023/06/14 03:10:28;;;;;;;2.85;1.75;;;;;;;12.98;71.59;101076.69;6049175;28;20030;-66
2023/06/14 03:13:24;;;;;;;6.38;2.33;;;;;;;12.93;71.42;101068.34;6037458;28;20033;-66
2023/06/14 03:16:20;;;;;;;4.25;1.70;;;;;;;13.18;71.23;101072.06;6029423;28;20061;-66
2023/06/14 03:19:15;;;;;;;5.57;2.00;;;;;;;12.91;71.42;101067.63;6038499;28;20381;-66
2023/06/14 03:22:11;;;;;;;3.17;1.63;;;;;;;12.97;71.82;101068.84;6035655;28;20087;-66
2023/06/14 03:25:09;;;;;;;3.50;1.80;;;;;;;13.11;70.61;101074.50;6048556;28;20029;-66
2023/06/14 03:28:05;;;;;;;2.70;1.63;;;;;;;13.11;71.11;101081.66;6048822;28;20106;-66
2023/06/14 03:31:01;;;;;;;3.03;1.70;;;;;;;13.24;70.80;101075.94;6049258;28;20026;-67
2023/06/14 03:33:56;;;;;;;3.30;1.50;;;;;;;13.07;71.12;101074.97;6047340;28;20041;-66
2023/06/14 03:36:52;;;;;;;5.93;1.60;;;;;;;12.96;71.51;101083.97;6031318;28;20058;-67
2023/06/14 03:39:47;;;;;;;5.72;1.88;;;;;;;12.83;73.46;101088.84;6040172;28;20057;-66
2023/06/14 03:42:42;;;;;;;5.38;1.80;;;;;;;12.72;72.62;101107.69;6029901;28;20046;-66
2023/06/14 03:45:38;;;;;;;3.77;1.83;;;;;;;12.55;72.80;101096.03;6036620;28;20026;-66
2023/06/14 03:48:33;;;;;;;4.33;1.60;;;;;;;12.73;73.72;101109.38;6052180;28;20496;-65
2023/06/14 03:51:29;;;;;;;4.83;2.10;;;;;;;12.69;72.87;101108.00;6049610;28;20038;-66
2023/06/14 03:54:24;;;;;;;4.78;1.80;;;;;;;12.54;74.06;101126.31;6039382;28;20034;-66
2023/06/14 03:57:22;;;;;;;3.83;1.90;;;;;;;12.40;73.69;101115.31;6049864;28;20093;-66
2023/06/14 04:00:18;;;;;;;6.22;1.77;;;;;;;12.35;74.86;101109.59;6051028;28;20080;-66
2023/06/14 04:03:13;;;;;;;2.97;1.70;;;;;;;12.38;75.02;101114.63;6052952;28;20049;-67
2023/06/14 04:06:09;;;;;;;3.25;1.70;;;;;;;12.48;74.87;101124.22;6044115;28;20026;-66
2023/06/14 04:09:04;;;;;;;4.63;1.77;;;;;;;12.48;75.00;101120.72;6036155;28;20030;-66
2023/06/14 04:11:59;;;;;;;4.53;1.83;;;;;;;12.53;74.81;101129.09;6023846;28;20039;-66
2023/06/14 04:14:55;;;;;;;3.40;1.70;;;;;;;12.53;74.89;101145.91;6034043;28;20281;-66
2023/06/14 04:17:50;;;;;;;4.83;1.67;;;;;;;12.51;74.60;101131.91;6043841;28;20075;-66
2023/06/14 04:20:46;;;;;;;3.60;1.63;;;;;;;12.88;74.64;101137.13;6036085;28;20736;-66
2023/06/14 04:23:43;;;;;;;2.97;1.50;;;;;;;13.58;71.88;101132.84;6034255;28;20033;-66
2023/06/14 04:26:40;;;;;;;4.22;2.00;;;;;;;14.03;68.61;101121.94;6052172;28;20692;-66
2023/06/14 04:29:36;;;;;;;3.80;1.52;;;;;;;14.12;68.21;101113.84;6050709;28;20532;-66
2023/06/14 04:32:33;;;;;;;2.97;1.70;;;;;;;14.10;68.74;101133.69;6052166;28;20031;-67
2023/06/14 04:35:28;;;;;;;3.33;1.60;;;;;;;15.05;65.16;101128.88;6021949;28;20022;-66
2023/06/14 04:38:25;;;;;;;4.57;1.63;;;;;;;15.01;64.18;101124.00;6033841;28;20401;-66
2023/06/14 04:41:22;;;;;;;6.35;1.85;;;;;;;15.42;63.10;101126.56;6044896;28;20045;-66
2023/06/14 04:44:20;;;;;;;5.28;2.03;;;;;;;14.95;64.43;101144.19;6031103;28;20394;-66
2023/06/14 04:47:16;;;;;;;4.43;1.70;;;;;;;14.55;66.43;101125.41;6047632;28;20134;-66
2023/06/14 04:50:12;;;;;;;4.90;1.90;;;;;;;14.79;67.24;101138.81;6035830;28;20537;-66
2023/06/14 04:53:08;;;;;;;3.50;1.60;;;;;;;15.12;64.30;101121.88;6047681;28;20060;-66
2023/06/14 04:56:04;;;;;;;3.45;1.83;;;;;;;15.63;63.01;101135.94;6033962;28;20408;-66
2023/06/14 04:58:59;;;;;;;3.88;1.60;;;;;;;15.66;62.55;101138.25;6034649;28;20058;-66
2023/06/14 05:01:56;;;;;;;3.80;1.47;;;;;;;15.45;63.50;101134.25;6032010;28;20093;-66
2023/06/14 05:04:52;;;;;;;4.28;1.55;;;;;;;15.27;64.10;101128.22;6050517;28;20025;-66
2023/06/14 05:07:47;;;;;;;3.10;1.60;;;;;;;15.92;61.97;101153.13;6041341;28;20120;-66
2023/06/14 05:10:42;;;;;;;4.13;2.13;;;;;;;16.37;60.53;101149.81;6033003;28;20412;-66
2023/06/14 05:13:39;;;;;;;4.70;1.63;;;;;;;16.14;60.51;101140.88;6048090;28;20045;-66
2023/06/14 05:16:35;;;;;;;3.47;1.98;;;;;;;16.40;61.24;101146.81;6033422;28;20038;-66
2023/06/14 05:19:30;;;;;;;4.33;1.60;;;;;;;16.31;60.70;101157.69;6031857;28;20041;-66
2023/06/14 05:22:25;;;;;;;2.13;1.20;;;;;;;16.88;59.42;101151.13;6038057;28;20272;-66
2023/06/14 05:25:21;;;;;;;2.45;1.60;;;;;;;16.68;59.78;101155.25;6048967;28;20037;-66
2023/06/14 05:28:16;;;;;;;2.53;1.50;;;;;;;16.72;59.70;101161.09;6041023;28;20041;-66
2023/06/14 05:31:11;;;;;;;2.92;1.60;;;;;;;16.95;59.26;101153.94;6039042;28;20068;-66
2023/06/14 05:34:07;;;;;;;3.97;1.93;;;;;;;16.83;59.39;101168.72;6032680;28;20497;-66
2023/06/14 05:37:03;;;;;;;3.93;1.60;;;;;;;16.73;60.63;101181.50;6043432;28;20026;-66
2023/06/14 05:39:59;;;;;;;4.60;1.50;;;;;;;16.59;59.83;101167.00;6036596;28;20038;-67
2023/06/14 05:42:54;;;;;;;3.95;1.50;;;;;;;16.67;60.28;101178.53;6044521;28;20025;-66
2023/06/14 05:45:49;;;;;;;4.10;1.73;;;;;;;16.33;61.58;101177.97;6049416;28;20057;-65
2023/06/14 05:48:45;;;;;;;3.00;1.73;;;;;;;16.79;59.96;101162.91;6050672;28;20034;-66
2023/06/14 05:51:40;;;;;;;4.00;2.07;;;;;;;16.73;60.62;101170.78;6050449;28;20095;-66
2023/06/14 05:54:36;;;;;;;4.38;2.30;;;;;;;17.10;58.66;101165.56;6044421;28;20041;-66
2023/06/14 05:57:31;;;;;;;5.87;2.20;;;;;;;16.98;59.17;101183.06;6032422;28;20432;-66
2023/06/14 06:00:27;;;;;;;4.30;2.03;;;;;;;16.94;59.28;101176.38;6034485;28;20031;-66
2023/06/14 06:03:23;;;;;;;4.28;1.95;;;;;;;17.35;59.17;101163.56;6049745;28;20041;-64
2023/06/14 06:06:19;;;;;;;6.05;2.13;;;;;;;17.74;57.89;101175.84;6046287;28;20421;-67
2023/06/14 06:09:14;;;;;;;3.85;1.90;;;;;;;17.65;57.01;101168.88;6035274;28;20065;-67
2023/06/14 06:12:10;;;;;;;3.80;1.70;;;;;;;17.90;56.67;101174.03;6043439;28;20022;-66
2023/06/14 06:15:06;;;;;;;5.90;1.92;;;;;;;18.42;55.29;101181.03;6036125;28;20030;-66
2023/06/14 06:18:01;;;;;;;4.22;1.83;;;;;;;18.13;56.07;101180.16;6035768;28;20110;-67
2023/06/14 06:20:57;;;;;;;2.83;1.77;;;;;;;18.39;55.09;101175.19;6047844;28;20042;-65
2023/06/14 06:23:52;;;;;;;5.32;2.08;;;;;;;17.98;55.15;101172.09;6036291;28;20044;-66
2023/06/14 06:26:48;;;;;;;3.17;1.80;;;;;;;18.44;54.70;101168.25;6045564;28;20027;-67
2023/06/14 06:29:46;;;;;;;5.25;2.03;;;;;;;18.06;55.78;101181.91;6032386;28;20022;-66
2023/06/14 06:32:41;;;;;;;4.50;1.77;;;;;;;18.42;54.27;101169.44;6019929;28;20026;-66
2023/06/14 06:35:36;;;;;;;3.10;1.80;;;;;;;19.21;52.09;101187.41;6026088;28;20112;-66
2023/06/14 06:38:32;;;;;;;5.18;2.28;;;;;;;18.91;53.21;101185.81;6031121;28;20036;-66
2023/06/14 06:41:27;;;;;;;4.13;2.17;;;;;;;18.62;52.28;101192.06;6031509;28;20022;-66
2023/06/14 06:44:22;;;;;;;5.20;1.90;;;;;;;18.25;54.52;101201.03;6023463;28;20113;-66
2023/06/14 06:47:18;;;;;;;5.43;2.03;;;;;;;18.13;54.34;101204.31;6029931;28;20041;-66
2023/06/14 06:50:13;;;;;;;3.40;1.90;;;;;;;17.98;55.11;101198.09;6043950;28;20026;-66
2023/06/14 06:53:08;;;;;;;5.57;2.10;;;;;;;18.48;53.46;101189.41;6036267;28;20472;-67
2023/06/14 06:56:04;;;;;;;3.00;1.67;;;;;;;18.57;53.84;101199.00;6042281;28;20031;-66
2023/06/14 06:58:59;;;;;;;4.10;1.95;;;;;;;18.54;54.02;101202.91;6032237;28;20053;-67
2023/06/14 07:01:54;;;;;;;4.10;1.90;;;;;;;18.95;53.07;101224.72;6043668;28;20029;-66
2023/06/14 07:04:50;;;;;;;6.53;2.20;;;;;;;18.71;53.37;101215.13;6023331;28;20034;-66
2023/06/14 07:07:45;;;;;;;3.33;2.00;;;;;;;19.44;52.07;101220.38;6031479;28;20288;-66
2023/06/14 07:10:41;;;;;;;4.30;1.90;;;;;;;18.97;51.49;101211.94;6039812;28;20023;-66
2023/06/14 07:13:36;;;;;;;3.50;1.80;;;;;;;18.83;51.86;101221.69;6037543;28;20060;-66
2023/06/14 07:16:32;;;;;;;2.70;1.50;;;;;;;18.93;51.41;101216.88;6042614;28;20041;-66
2023/06/14 07:19:27;;;;;;;4.15;1.90;;;;;;;19.40;50.20;101223.66;6037705;28;20034;-66
2023/06/14 07:22:22;;;;;;;5.77;1.93;;;;;;;19.09;50.76;101231.09;6030717;28;20045;-66
2023/06/14 07:25:19;;;;;;;3.17;1.67;;;;;;;19.13;50.79;101238.63;6050774;28;20026;-65
2023/06/14 07:28:16;;;;;;;3.35;1.63;;;;;;;18.79;51.03;101212.34;6037119;28;20061;-66
2023/06/14 07:31:12;;;;;;;3.47;1.60;;;;;;;18.86;51.28;101237.44;6038646;28;20026;-66
2023/06/14 07:34:07;;;;;;;4.60;1.67;;;;;;;19.10;49.27;101214.81;6052355;28;20041;-66
2023/06/14 07:37:03;;;;;;;3.63;1.63;;;;;;;19.77;48.37;101228.78;6045566;28;20040;-66
2023/06/14 07:39:58;;;;;;;5.70;2.10;;;;;;;19.38;48.85;101214.91;6052846;28;20021;-66
2023/06/14 07:42:54;;;;;;;2.77;1.70;;;;;;;19.16;49.67;101210.53;6046775;28;20037;-66
2023/06/14 07:45:50;;;;;;;4.05;1.70;;;;;;;19.10;49.61;101216.66;6047231;28;20030;-66
2023/06/14 07:48:45;;;;;;;7.93;2.00;;;;;;;19.44;48.79;101225.75;6046523;28;20335;-66
2023/06/14 07:51:40;;;;;;;2.50;1.50;;;;;;;19.68;47.26;101221.00;6049500;28;20363;-66
2023/06/14 07:54:36;;;;;;;3.17;1.50;;;;;;;19.75;48.24;101206.59;6052200;28;20041;-66
2023/06/14 07:57:31;;;;;;;3.25;1.55;;;;;;;19.80;47.08;101209.53;6043453;28;20117;-67
2023/06/14 08:00:26;;;;;;;3.13;1.33;;;;;;;20.09;46.58;101217.44;6033852;28;20030;-66
2023/06/14 08:03:22;;;;;;;2.80;1.40;;;;;;;19.88;46.16;101211.25;6039687;28;20273;-67
2023/06/14 08:06:17;;;;;;;3.38;2.08;;;;;;;20.38;46.29;101221.00;6045989;28;20035;-67
2023/06/14 08:09:13;;;;;;;3.57;1.63;;;;;;;20.25;47.26;101223.63;6047127;28;20029;-67
2023/06/14 08:12:09;;;;;;;3.28;1.80;;;;;;;19.94;48.02;101222.09;6042007;28;20586;-67
2023/06/14 08:15:05;;;;;;;2.50;1.50;;;;;;;20.38;47.11;101208.38;6038921;28;20030;-67
2023/06/14 08:18:01;;;;;;;2.75;1.40;;;;;;;19.45;48.67;101210.44;6024114;28;20117;-66
2023/06/14 08:20:57;;;;;;;3.60;1.85;;;;;;;19.91;47.70;101218.94;6045844;28;20039;-67
2023/06/14 08:23:52;;;;;;;4.15;1.63;;;;;;;19.86;46.17;101208.78;6043395;28;20036;-65
2023/06/14 08:26:48;;;;;;;3.03;1.40;;;;;;;19.94;46.39;101211.31;6041546;28;20498;-65
2023/06/14 08:29:43;;;;;;;3.30;1.87;;;;;;;19.94;46.32;101216.72;6034221;28;20508;-66
2023/06/14 08:32:38;;;;;;;3.93;1.50;;;;;;;20.12;46.27;101221.59;6036701;28;20030;-65
2023/06/14 08:35:36;;;;;;;3.90;1.60;;;;;;;20.54;45.20;101216.13;6051500;28;20268;-65
2023/06/14 08:38:32;;;;;;;3.33;1.73;;;;;;;20.16;46.38;101214.81;6045934;28;20046;-68
2023/06/14 08:41:29;;;;;;;3.13;1.70;;;;;;;20.43;45.72;101227.47;6049597;28;20026;-65
2023/06/14 08:44:24;;;;;;;3.30;1.45;;;;;;;20.81;44.22;101225.19;6025970;28;20031;-66
2023/06/14 08:47:20;;;;;;;3.33;1.70;;;;;;;21.49;44.15;101217.97;6051800;28;20489;-65
2023/06/14 08:50:16;;;;;;;4.05;1.70;;;;;;;21.44;44.21;101209.66;6045597;28;20823;-66
2023/06/14 08:53:19;;;;;;;3.60;1.80;;;;;;;21.01;44.33;101215.31;6047849;28;20030;-66
2023/06/14 08:56:14;;;;;;;5.03;1.70;;;;;;;21.14;44.31;101215.41;6049588;28;20031;-65
2023/06/14 08:59:11;;;;;;;2.73;1.87;;;;;;;20.83;45.91;101223.13;6030298;28;20470;-65
2023/06/14 09:02:06;;;;;;;3.15;1.73;;;;;;;21.04;44.55;101220.28;6045249;28;20040;-66
2023/06/14 09:05:01;;;;;;;3.20;1.90;;;;;;;21.15;44.71;101208.97;6043194;28;20459;-66
2023/06/14 09:08:00;;;;;;;3.57;1.67;;;;;;;20.96;45.62;101220.47;6049919;28;20040;-65
2023/06/14 09:10:55;;;;;;;2.60;1.80;;;;;;;21.05;45.87;101227.38;6054490;28;20030;-66
2023/06/14 09:13:50;;;;;;;4.87;1.80;;;;;;;21.64;44.17;101215.91;6032653;28;20112;-67
2023/06/14 09:16:46;;;;;;;3.90;1.83;;;;;;;21.35;43.58;101212.56;6041525;28;20323;-66
2023/06/14 09:19:41;;;;;;;4.00;1.80;;;;;;;21.36;43.92;101219.59;6021669;28;20034;-66
2023/06/14 09:22:38;;;;;;;3.97;1.70;;;;;;;21.55;44.07;101227.97;6042310;28;20029;-66
2023/06/14 09:25:41;;;;;;;3.65;1.63;;;;;;;21.70;42.93;101215.94;6025590;28;20287;-66
2023/06/14 09:28:44;;;;;;;3.60;2.03;;;;;;;21.86;42.90;101220.09;6042768;28;20441;-68
2023/06/14 09:31:40;;;;;;;3.25;1.60;;;;;;;21.54;43.14;101210.09;6040052;28;20037;-66
2023/06/14 09:34:35;;;;;;;3.85;1.52;;;;;;;22.22;42.75;101220.53;6050049;28;20048;-67
2023/06/14 09:37:32;;;;;;;2.97;1.73;;;;;;;22.37;40.21;101213.00;6027768;28;20084;-67
2023/06/14 09:40:28;;;;;;;4.55;1.70;;;;;;;22.24;41.52;101213.03;6049747;28;20272;-66
2023/06/14 09:43:23;;;;;;;3.80;2.13;;;;;;;21.94;41.68;101206.41;6046628;28;20058;-66
2023/06/14 09:46:19;;;;;;;4.80;1.93;;;;;;;21.56;42.25;101208.00;6050577;28;20026;-66
2023/06/14 09:49:14;;;;;;;4.38;2.30;;;;;;;21.41;43.34;101210.06;6035300;28;20063;-66
2023/06/14 09:52:12;;;;;;;4.73;2.10;;;;;;;21.81;41.96;101218.03;6031671;28;20034;-66
2023/06/14 09:55:12;;;;;;;5.38;1.73;;;;;;;22.07;42.01;101221.81;6030008;28;20270;-66
2023/06/14 09:58:08;;;;;;;5.55;1.85;;;;;;;22.01;42.35;101218.06;6024957;28;20116;-66
2023/06/14 10:01:05;;;;;;;4.18;1.52;;;;;;;22.19;41.74;101204.75;6045152;28;20034;-66
2023/06/14 10:04:03;;;;;;;3.38;2.00;;;;;;;22.60;40.57;101204.44;6048168;28;20053;-66
2023/06/14 10:06:58;;;;;;;3.63;1.88;;;;;;;22.38;41.45;101216.56;6046271;28;20041;-66
2023/06/14 10:09:54;;;;;;;3.72;1.80;;;;;;;22.61;40.77;101202.56;6065291;28;20029;-66
2023/06/14 10:12:49;;;;;;;3.92;1.73;;;;;;;23.27;39.18;101193.13;6026896;28;20489;-66
2023/06/14 10:15:55;;;;;;;5.40;1.70;;;;;;;23.35;39.32;101195.59;6031690;28;20030;-66
2023/06/14 10:18:51;;;;;;;;;;;;;;;23.10;39.82;101208.25;6045087;28;20438;-66
2023/06/14 10:22:05;;;;;;;4.85;2.03;;;;;;;22.98;39.67;101199.13;6040152;28;20391;-66
2023/06/14 10:25:01;;;;;;;5.05;1.90;;;;;;;23.84;38.01;101189.44;6043884;28;20034;-67
2023/06/14 10:28:03;;;;;;;4.20;1.98;;;;;;;23.75;38.41;101200.78;6034209;28;20417;-67
2023/06/14 10:31:05;;;;;;;4.90;2.08;;;;;;;23.62;37.75;101194.41;6035551;28;20116;-67
2023/06/14 10:34:00;;;;;;;3.47;2.05;;;;;;;22.71;39.56;101184.88;6035011;28;20063;-67
2023/06/14 10:37:05;;;;;;;3.88;2.15;;;;;;;22.99;39.87;101198.09;6042201;28;20036;-67
2023/06/14 10:40:00;;;;;;;4.25;1.80;;;;;;;22.74;39.18;101170.94;6033225;28;20029;-67
2023/06/14 10:42:55;;;;;;;5.50;1.80;;;;;;;23.91;38.46;101167.72;6049512;28;20029;-67
2023/06/14 10:46:17;;;;;;;4.73;1.97;;;;;;;23.50;37.50;101174.50;6040008;28;20030;-66
2023/06/14 10:49:18;;;;;;;5.15;2.05;;;;;;;23.27;38.42;101176.91;6044678;28;20026;-67
2023/06/14 10:52:18;;;;;;;4.55;2.03;;;;;;;22.69;39.35;101175.34;6037522;28;20030;-66
2023/06/14 10:55:16;;;;;;;3.80;2.08;;;;;;;23.10;39.20;101159.53;6036500;28;20041;-66
2023/06/14 10:58:11;;;;;;;4.55;1.80;;;;;;;23.73;38.07;101167.66;6021126;28;20049;-66
2023/06/14 11:01:07;;;;;;;7.73;2.30;;;;;;;22.54;40.19;101138.53;6036844;28;20041;-67
2023/06/14 11:04:08;;;;;;;6.75;2.20;;;;;;;23.30;39.85;101170.22;6050086;28;20492;-66
2023/06/14 11:07:43;;;;;;;3.90;1.95;;;;;;;23.41;38.86;101173.09;6043685;28;20064;-66
2023/06/14 11:10:40;;;;;;;3.50;2.08;;;;;;;22.85;40.45;101172.97;6045404;28;20488;-66
2023/06/14 11:13:41;;;;;;;6.03;2.63;;;;;;;23.10;40.72;101151.41;6046228;28;20030;-67
2023/06/14 11:16:36;;;;;;;7.15;2.80;;;;;;;23.00;40.33;101164.56;6024056;28;20377;-66
2023/06/14 11:19:31;;;;;;;3.67;2.10;;;;;;;22.80;40.80;101161.94;6048968;28;20030;-66
2023/06/14 11:22:27;;;;;;;6.50;3.23;;;;;;;22.60;41.87;101173.88;6028583;28;20051;-67
2023/06/14 11:25:23;;;;;;;3.80;2.30;;;;;;;23.12;41.46;101162.84;6039340;28;20281;-67
2023/06/14 11:28:21;;;;;;;8.02;2.47;;;;;;;22.62;42.17;101160.97;6033935;28;20779;-67
2023/06/14 11:31:20;;;;;;;4.43;2.55;;;;;;;22.67;42.23;101172.00;6044919;28;20113;-67
2023/06/14 11:34:16;;;;;;;8.10;2.70;;;;;;;22.29;42.88;101161.06;6046642;28;20072;-66
2023/06/14 11:37:11;;;;;;;4.57;2.80;;;;;;;22.65;42.40;101166.81;6047757;28;20437;-67
2023/06/14 11:40:09;;;;;;;5.07;2.93;;;;;;;23.39;40.58;101163.53;6046960;28;20045;-66
2023/06/14 11:43:04;;;;;;;6.85;2.58;;;;;;;23.46;41.19;101159.72;6049236;28;20132;-66
2023/06/14 11:46:00;;;;;;;3.73;2.33;;;;;;;23.61;40.31;101160.25;6041285;28;20069;-68
2023/06/14 11:48:55;;;;;;;4.88;2.45;;;;;;;23.06;41.95;101142.06;6040240;28;20497;-66
2023/06/14 11:51:53;;;;;;;6.07;2.70;;;;;;;22.79;42.61;101141.38;6047070;28;20030;-67
2023/06/14 11:54:48;;;;;;;3.65;2.47;;;;;;;22.97;42.21;101148.75;6039479;28;20037;-66
2023/06/14 11:57:43;;;;;;;6.90;2.40;;;;;;;22.92;42.46;101154.81;6042223;28;20454;-66
2023/06/14 12:00:39;;;;;;;3.43;2.60;;;;;;;23.20;41.59;101154.47;6014233;28;20030;-67
2023/06/14 12:03:36;;;;;;;6.30;2.55;;;;;;;23.38;41.33;101138.34;6052333;28;20038;-67
2023/06/14 12:06:35;;;;;;;9.05;2.00;;;;;;;23.63;41.35;101141.91;6038320;28;20033;-66
2023/06/14 12:09:31;;;;;;;7.13;2.63;;;;;;;23.51;40.95;101150.94;6049958;28;20033;-66
2023/06/14 12:12:26;;;;;;;5.97;2.53;;;;;;;23.49;41.32;101147.63;6042858;28;20040;-66
2023/06/14 12:15:22;;;;;;;8.23;2.53;;;;;;;23.42;41.10;101153.09;6025174;28;20038;-67
2023/06/14 12:18:17;;;;;;;4.47;2.55;;;;;;;23.68;40.93;101133.09;6044390;28;20034;-67
2023/06/14 12:21:12;;;;;;;5.23;3.10;;;;;;;23.62;39.77;101147.53;6049168;28;20409;-66
2023/06/14 12:24:08;;;;;;;6.57;2.53;;;;;;;23.64;39.62;101130.00;6047670;28;20018;-67
2023/06/14 12:27:04;;;;;;;4.45;3.05;;;;;;;23.73;39.81;101132.47;6032399;28;20675;-67
2023/06/14 12:30:03;;;;;;;10.95;2.97;;;;;;;23.54;39.98;101118.84;6016796;28;20060;-67
2023/06/14 12:32:58;;;;;;;5.95;2.72;;;;;;;23.19;40.48;101128.44;6038915;28;20417;-66
2023/06/14 12:35:56;;;;;;;6.73;2.60;;;;;;;23.81;39.58;101118.63;6051461;28;20026;-67
2023/06/14 12:38:54;;;;;;;5.18;2.60;;;;;;;24.36;38.58;101135.78;6026771;28;20353;-67
2023/06/14 12:41:49;;;;;;;5.80;2.83;;;;;;;23.78;38.88;101129.91;6048431;28;20369;-67
2023/06/14 12:44:44;;;;;;;6.60;2.47;;;;;;;23.66;39.56;101129.78;6050158;28;20034;-67
2023/06/14 12:47:39;;;;;;;5.57;2.53;;;;;;;23.84;38.74;101129.00;6052006;28;20026;-66
2023/06/14 12:50:35;;;;;;;5.67;2.73;;;;;;;24.37;38.30;101119.31;6038505;28;20038;-67
2023/06/14 12:53:30;;;;;;;5.50;2.80;;;;;;;25.15;37.05;101127.47;6036860;28;20409;-66
2023/06/14 12:56:26;;;;;;;9.10;2.47;;;;;;;25.47;34.88;101115.31;6022531;28;20050;-67
2023/06/14 12:59:21;;;;;;;6.28;2.58;;;;;;;25.06;35.26;101120.75;6060704;28;20795;-68
2023/06/14 13:02:17;;;;;;;7.73;2.40;;;;;;;24.52;36.44;101127.88;6046674;28;20073;-67
2023/06/14 13:05:13;;;;;;;8.15;2.63;;;;;;;24.11;37.28;101127.72;6042102;28;20030;-67
2023/06/14 13:08:08;;;;;;;4.70;2.50;;;;;;;23.53;38.25;101113.66;6041378;28;20087;-67
2023/06/14 13:11:03;;;;;;;5.10;2.20;;;;;;;23.40;38.88;101109.16;6047752;28;20032;-66
2023/06/14 13:13:59;;;;;;;5.77;2.57;;;;;;;23.66;38.40;101110.84;6033518;28;20041;-67
2023/06/14 13:16:55;;;;;;;7.07;3.10;;;;;;;23.19;39.12;101120.31;6043630;28;20585;-67
2023/06/14 13:19:50;;;;;;;5.60;2.50;;;;;;;23.14;39.40;101128.28;6031671;28;20038;-67
2023/06/14 13:22:45;;;;;;;4.80;2.53;;;;;;;23.95;38.40;101128.25;6040031;28;20409;-67
2023/06/14 13:25:41;;;;;;;6.10;2.40;;;;;;;24.23;37.53;101117.78;6042179;28;20038;-67
2023/06/14 13:28:36;;;;;;;10.98;2.60;;;;;;;24.14;37.88;101124.56;6028014;28;20061;-67
2023/06/14 13:31:33;;;;;;;5.25;2.50;;;;;;;24.00;37.50;101123.00;6038446;28;20038;-67
2023/06/14 13:34:28;;;;;;;5.68;2.50;;;;;;;23.79;38.48;101116.13;6050012;28;20056;-68
2023/06/14 13:37:23;;;;;;;8.93;2.50;;;;;;;23.92;38.10;101115.16;6027100;28;20038;-67
2023/06/14 13:40:19;;;;;;;21.40;4.15;;;;;;;24.63;37.21;101108.13;6042952;28;20057;-67
2023/06/14 13:43:14;;;;;;;5.33;2.60;;;;;;;25.18;36.51;101105.31;6045864;28;20461;-67